createdAt,value
2019-05-18T00:00:26.353Z,11.50
2019-05-18T00:02:55.660Z,11.40
2019-05-18T00:05:24.992Z,11.50
2019-05-18T00:07:54.320Z,11.40
2019-05-18T00:10:23.658Z,11.30
2019-05-18T00:12:52.997Z,11.40
2019-05-18T00:15:22.413Z,11.40
2019-05-18T00:17:51.729Z,11.40
2019-05-18T00:20:21.068Z,11.30
2019-05-18T00:22:50.420Z,11.30
2019-05-18T00:25:19.758Z,11.20
2019-05-18T00:27:49.205Z,11.20
2019-05-18T00:30:18.607Z,11.20
2019-05-18T00:32:47.914Z,11.20
2019-05-18T00:35:17.387Z,11.10
2019-05-18T00:37:46.728Z,11.10
2019-05-18T00:40:17.065Z,11.10
2019-05-18T00:42:46.451Z,11.00
2019-05-18T00:45:16.092Z,11.00
2019-05-18T00:47:45.431Z,10.90
2019-05-18T00:50:15.673Z,10.90
2019-05-18T00:52:45.006Z,10.90
2019-05-18T00:55:15.488Z,10.90
2019-05-18T00:57:44.814Z,10.90
2019-05-18T01:00:15.101Z,10.70
2019-05-18T01:02:44.489Z,10.80
2019-05-18T01:05:14.046Z,10.80
2019-05-18T01:07:43.360Z,10.90
2019-05-18T01:10:13.533Z,10.90
2019-05-18T01:12:42.876Z,10.80
2019-05-18T01:15:12.944Z,10.60
2019-05-18T01:17:56.367Z,10.70
2019-05-18T01:20:13.708Z,10.80
2019-05-18T01:22:43.074Z,10.70
2019-05-18T01:25:12.544Z,10.70
2019-05-18T01:27:41.888Z,10.60
2019-05-18T01:30:12.034Z,10.60
2019-05-18T01:32:41.379Z,10.50
2019-05-18T01:35:12.041Z,10.50
2019-05-18T01:37:40.581Z,10.60
2019-05-18T01:40:10.146Z,10.50
2019-05-18T01:42:39.658Z,10.50
2019-05-18T01:45:16.774Z,10.40
2019-05-18T01:47:40.508Z,10.60
2019-05-18T01:50:10.143Z,10.60
2019-05-18T01:52:39.531Z,10.60
2019-05-18T01:55:09.501Z,10.50
2019-05-18T01:57:38.843Z,10.50
2019-05-18T02:00:09.521Z,10.50
2019-05-18T02:02:38.057Z,10.50
2019-05-18T02:05:07.548Z,10.50
2019-05-18T02:07:36.857Z,10.50
2019-05-18T02:10:06.617Z,10.50
2019-05-18T02:12:36.016Z,10.40
2019-05-18T02:15:06.681Z,10.30
2019-05-18T02:17:35.280Z,10.10
2019-05-18T02:20:05.262Z,10.10
2019-05-18T02:22:34.658Z,10.10
2019-05-18T02:25:08.806Z,10.20
2019-05-18T02:27:38.116Z,10.30
2019-05-18T02:30:08.709Z,10.30
2019-05-18T02:32:38.089Z,10.30
2019-05-18T02:35:08.084Z,10.30
2019-05-18T02:37:37.439Z,10.30
2019-05-18T02:40:07.929Z,10.10
2019-05-18T02:42:37.257Z,10.00
2019-05-18T02:45:08.086Z,10.00
2019-05-18T02:47:36.618Z,10.10
2019-05-18T02:50:07.697Z,10.00
2019-05-18T02:52:37.088Z,10.10
2019-05-18T02:55:07.555Z,10.20
2019-05-18T02:57:36.940Z,10.30
2019-05-18T03:00:09.409Z,10.30
2019-05-18T03:02:39.914Z,10.40
2019-05-18T03:05:09.724Z,10.40
2019-05-18T03:07:39.123Z,10.20
2019-05-18T03:10:08.879Z,10.20
2019-05-18T03:12:38.290Z,10.20
2019-05-18T03:15:07.906Z,10.20
2019-05-18T03:17:37.337Z,10.20
2019-05-18T03:20:07.244Z,10.30
2019-05-18T03:22:36.693Z,10.30
2019-05-18T03:25:07.404Z,10.10
2019-05-18T03:27:36.032Z,9.90
2019-05-18T03:30:09.391Z,9.90
2019-05-18T03:32:38.939Z,9.70
2019-05-18T03:35:08.817Z,9.70
2019-05-18T03:37:38.253Z,9.90
2019-05-18T03:40:07.784Z,10.10
2019-05-18T03:42:37.164Z,10.10
2019-05-18T03:45:07.123Z,10.00
2019-05-18T03:47:36.431Z,9.90
2019-05-18T03:50:09.177Z,9.90
2019-05-18T03:52:38.584Z,9.80
2019-05-18T03:55:08.227Z,9.70
2019-05-18T03:57:37.554Z,9.70
2019-05-18T04:00:09.856Z,9.80
2019-05-18T04:02:39.257Z,9.90
2019-05-18T04:05:09.732Z,9.90
2019-05-18T04:07:39.071Z,9.80
2019-05-18T04:10:09.525Z,9.90
2019-05-18T04:12:38.924Z,9.90
2019-05-18T04:15:09.932Z,9.80
2019-05-18T04:17:39.277Z,9.90
2019-05-18T04:20:09.989Z,9.80
2019-05-18T04:22:39.308Z,9.80
2019-05-18T04:25:08.886Z,9.70
2019-05-18T04:27:38.195Z,9.80
2019-05-18T04:30:08.472Z,9.90
2019-05-18T04:32:37.802Z,9.90
2019-05-18T04:35:07.869Z,10.00
2019-05-18T04:37:37.265Z,9.90
2019-05-18T04:40:07.653Z,9.90
2019-05-18T04:42:37.097Z,10.10
2019-05-18T04:45:08.954Z,10.00
2019-05-18T04:47:38.286Z,10.00
2019-05-18T04:50:08.235Z,10.10
2019-05-18T04:52:37.563Z,10.20
2019-05-18T04:55:07.253Z,10.20
2019-05-18T04:57:36.570Z,10.00
2019-05-18T05:00:07.934Z,10.10
2019-05-18T05:02:37.338Z,10.20
2019-05-18T05:05:06.947Z,10.30
2019-05-18T05:07:36.249Z,10.30
2019-05-18T05:10:07.212Z,10.30
2019-05-18T05:12:37.508Z,10.20
2019-05-18T05:15:07.491Z,10.20
2019-05-18T05:17:47.430Z,10.30
2019-05-18T05:20:20.044Z,10.30
2019-05-18T05:22:48.100Z,10.30
2019-05-18T05:25:17.445Z,10.40
2019-05-18T05:27:46.783Z,10.40
2019-05-18T05:30:17.409Z,10.50
2019-05-18T05:32:46.780Z,10.40
2019-05-18T05:35:16.225Z,10.40
2019-05-18T05:37:45.528Z,10.40
2019-05-18T05:40:16.605Z,10.40
2019-05-18T05:42:45.979Z,10.40
2019-05-18T05:45:15.482Z,10.30
2019-05-18T05:47:44.812Z,10.40
2019-05-18T05:50:14.504Z,10.30
2019-05-18T05:52:43.904Z,10.40
2019-05-18T05:55:13.947Z,10.40
2019-05-18T05:57:43.294Z,10.50
2019-05-18T06:00:15.272Z,10.60
2019-05-18T06:02:44.723Z,10.50
2019-05-18T06:05:14.608Z,10.50
2019-05-18T06:07:43.911Z,10.70
2019-05-18T06:10:13.897Z,10.80
2019-05-18T06:12:44.750Z,10.90
2019-05-18T06:15:14.239Z,10.90
2019-05-18T06:17:43.547Z,10.90
2019-05-18T06:20:13.136Z,11.00
2019-05-18T06:22:42.513Z,11.00
2019-05-18T06:25:12.271Z,11.10
2019-05-18T06:27:41.788Z,11.20
2019-05-18T06:30:11.561Z,11.20
2019-05-18T06:32:40.905Z,11.20
2019-05-18T06:35:10.493Z,11.30
2019-05-18T06:37:39.803Z,11.40
2019-05-18T06:40:09.855Z,11.50
2019-05-18T06:42:39.336Z,11.60
2019-05-18T06:45:09.427Z,11.80
2019-05-18T06:47:38.961Z,12.10
2019-05-18T06:50:12.478Z,12.20
2019-05-18T06:52:41.077Z,12.30
2019-05-18T06:55:12.282Z,12.30
2019-05-18T06:57:42.636Z,12.50
2019-05-18T07:00:15.038Z,12.70
2019-05-18T07:02:44.516Z,12.90
2019-05-18T07:05:14.022Z,13.10
2019-05-18T07:07:43.342Z,13.30
2019-05-18T07:10:12.799Z,13.50
2019-05-18T07:12:42.142Z,13.60
2019-05-18T07:15:12.115Z,13.80
2019-05-18T07:17:41.445Z,13.90
2019-05-18T07:20:11.109Z,13.90
2019-05-18T07:22:41.667Z,13.80
2019-05-18T07:25:11.422Z,14.10
2019-05-18T07:27:40.724Z,14.10
2019-05-18T07:30:10.923Z,14.20
2019-05-18T07:32:41.202Z,14.50
2019-05-18T07:35:11.112Z,14.50
2019-05-18T07:37:40.420Z,14.80
2019-05-18T07:40:10.609Z,15.00
2019-05-18T07:42:40.227Z,15.10
2019-05-18T07:45:09.901Z,15.20
2019-05-18T07:47:39.362Z,15.30
2019-05-18T07:50:09.226Z,15.40
2019-05-18T07:52:38.530Z,15.50
2019-05-18T07:55:09.971Z,15.50
2019-05-18T07:57:39.343Z,15.50
2019-05-18T08:00:10.055Z,15.40
2019-05-18T08:02:39.408Z,15.60
2019-05-18T08:05:10.283Z,15.90
2019-05-18T08:07:39.730Z,16.10
2019-05-18T08:10:09.595Z,16.20
2019-05-18T08:12:39.000Z,16.20
2019-05-18T08:15:10.554Z,16.30
2019-05-18T08:17:39.884Z,16.80
2019-05-18T08:20:09.458Z,16.80
2019-05-18T08:22:38.827Z,17.10
2019-05-18T08:25:09.981Z,17.30
2019-05-18T08:27:39.270Z,17.60
2019-05-18T08:30:10.160Z,17.80
2019-05-18T08:32:39.694Z,17.80
2019-05-18T08:35:09.481Z,17.80
2019-05-18T08:37:38.786Z,17.70
2019-05-18T08:40:08.936Z,17.70
2019-05-18T08:42:38.818Z,17.90
2019-05-18T08:45:09.783Z,18.00
2019-05-18T08:47:40.180Z,18.20
2019-05-18T08:50:09.828Z,18.10
2019-05-18T08:52:39.193Z,17.90
2019-05-18T08:55:08.903Z,18.30
2019-05-18T08:57:39.397Z,18.00
2019-05-18T09:00:10.756Z,18.00
2019-05-18T09:02:40.133Z,18.40
2019-05-18T09:05:10.324Z,18.50
2019-05-18T09:07:38.961Z,18.60
2019-05-18T09:10:08.895Z,18.60
2019-05-18T09:12:38.656Z,18.60
2019-05-18T09:15:08.720Z,18.80
2019-05-18T09:17:38.023Z,19.10
2019-05-18T09:20:07.881Z,19.20
2019-05-18T09:22:38.178Z,19.20
2019-05-18T09:25:07.945Z,19.30
2019-05-18T09:27:37.276Z,19.20
2019-05-18T09:30:10.815Z,19.10
2019-05-18T09:32:40.334Z,19.40
2019-05-18T09:35:10.145Z,19.60
2019-05-18T09:37:39.470Z,19.90
2019-05-18T09:40:09.109Z,19.80
2019-05-18T09:42:38.457Z,19.60
2019-05-18T09:45:08.702Z,19.80
2019-05-18T09:47:37.386Z,20.10
2019-05-18T09:50:07.316Z,20.60
2019-05-18T09:52:44.909Z,20.70
2019-05-18T09:55:08.130Z,20.50
2019-05-18T09:57:37.458Z,20.50
2019-05-18T10:00:09.042Z,20.60
2019-05-18T10:02:38.500Z,20.80
2019-05-18T10:05:08.509Z,21.10
2019-05-18T10:07:37.825Z,21.10
2019-05-18T10:10:08.352Z,21.30
2019-05-18T10:12:38.088Z,21.50
2019-05-18T10:15:08.372Z,21.80
2019-05-18T10:17:37.752Z,22.00
2019-05-18T10:20:07.903Z,22.10
2019-05-18T10:22:51.175Z,22.40
2019-05-18T10:25:11.603Z,22.80
2019-05-18T10:27:43.847Z,23.20
2019-05-18T10:30:13.868Z,23.40
2019-05-18T10:32:43.215Z,23.70
2019-05-18T10:35:14.360Z,24.10
2019-05-18T10:37:43.760Z,24.20
2019-05-18T10:40:13.286Z,23.80
2019-05-18T10:42:42.647Z,24.60
2019-05-18T10:45:12.350Z,24.90
2019-05-18T10:47:42.651Z,25.10
2019-05-18T10:50:12.116Z,25.40
2019-05-18T10:52:41.429Z,25.90
2019-05-18T10:55:11.063Z,26.00
2019-05-18T10:57:40.396Z,26.40
2019-05-18T11:00:11.458Z,26.50
2019-05-18T11:02:41.009Z,26.90
2019-05-18T11:05:09.777Z,26.90
2019-05-18T11:07:39.097Z,26.90
2019-05-18T11:10:10.498Z,26.80
2019-05-18T11:12:40.006Z,27.20
2019-05-18T11:15:11.409Z,27.50
2019-05-18T11:17:40.957Z,27.60
2019-05-18T11:20:12.474Z,27.60
2019-05-18T11:22:45.857Z,27.80
2019-05-18T11:25:17.710Z,27.80
2019-05-18T11:27:47.095Z,27.90
2019-05-18T11:30:21.331Z,28.20
2019-05-18T11:32:51.773Z,28.20
2019-05-18T11:35:21.575Z,28.20
2019-05-18T11:37:54.846Z,28.50
2019-05-18T11:40:24.956Z,28.90
2019-05-18T11:42:56.093Z,28.10
2019-05-18T11:45:27.228Z,28.60
2019-05-18T11:47:56.623Z,28.90
2019-05-18T11:50:26.503Z,29.50
2019-05-18T11:52:56.112Z,29.70
2019-05-18T11:55:25.516Z,29.00
2019-05-18T11:57:54.843Z,28.30
2019-05-18T12:00:23.639Z,28.20
2019-05-18T12:02:52.904Z,27.40
2019-05-18T12:05:22.279Z,26.50
2019-05-18T12:07:51.592Z,26.30
2019-05-18T12:10:21.156Z,25.50
2019-05-18T12:12:50.666Z,25.30
2019-05-18T12:15:20.754Z,25.60
2019-05-18T12:17:50.126Z,25.90
2019-05-18T12:20:19.894Z,26.90
2019-05-18T12:22:49.289Z,27.00
2019-05-18T12:25:18.704Z,27.30
2019-05-18T12:27:48.216Z,27.00
2019-05-18T12:30:18.271Z,26.80
2019-05-18T12:32:47.587Z,26.90
2019-05-18T12:35:18.352Z,26.40
2019-05-18T12:37:47.668Z,26.20
2019-05-18T12:40:22.071Z,26.00
2019-05-18T12:42:51.575Z,26.20
2019-05-18T12:45:21.339Z,26.80
2019-05-18T12:47:50.636Z,27.40
2019-05-18T12:50:20.904Z,27.20
2019-05-18T12:52:50.349Z,26.70
2019-05-18T12:55:20.014Z,26.50
2019-05-18T12:57:49.375Z,26.60
2019-05-18T13:00:19.437Z,27.30
2019-05-18T13:02:48.827Z,27.10
2019-05-18T13:05:18.566Z,26.50
2019-05-18T13:07:47.148Z,26.60
2019-05-18T13:10:17.548Z,26.40
2019-05-18T13:12:46.995Z,26.20
2019-05-18T13:15:16.876Z,26.20
2019-05-18T13:17:46.227Z,25.60
2019-05-18T13:20:16.171Z,25.50
2019-05-18T13:22:45.667Z,25.90
2019-05-18T13:25:15.891Z,26.50
2019-05-18T13:27:45.228Z,25.90
2019-05-18T13:30:14.909Z,25.80
2019-05-18T13:32:44.429Z,25.30
2019-05-18T13:35:15.081Z,25.20
2019-05-18T13:37:44.426Z,24.70
2019-05-18T13:40:14.381Z,24.30
2019-05-18T13:42:42.930Z,24.40
2019-05-18T13:45:13.989Z,24.60
2019-05-18T13:47:44.388Z,24.60
2019-05-18T13:50:15.495Z,24.40
2019-05-18T13:52:44.829Z,24.30
2019-05-18T13:55:14.432Z,24.00
2019-05-18T13:57:43.817Z,23.70
2019-05-18T14:00:13.988Z,22.90
2019-05-18T14:02:42.541Z,22.60
2019-05-18T14:05:13.498Z,22.10
2019-05-18T14:07:42.860Z,21.80
2019-05-18T14:10:13.467Z,21.50
2019-05-18T14:12:42.803Z,21.50
2019-05-18T14:15:14.125Z,21.30
2019-05-18T14:17:43.455Z,21.10
2019-05-18T14:20:14.991Z,21.10
2019-05-18T14:22:47.096Z,20.80
2019-05-18T14:25:20.323Z,20.50
2019-05-18T14:27:59.408Z,20.40
2019-05-18T14:30:33.242Z,20.20
2019-05-18T14:33:03.054Z,20.10
2019-05-18T14:35:33.502Z,19.80
2019-05-18T14:38:03.072Z,19.90
2019-05-18T14:40:32.367Z,20.00
2019-05-18T14:43:01.683Z,19.90
2019-05-18T14:45:30.996Z,19.80
2019-05-18T14:48:00.437Z,19.60
2019-05-18T14:50:29.766Z,19.50
2019-05-18T14:52:59.077Z,19.50
2019-05-18T14:55:33.645Z,19.40
2019-05-18T14:57:59.440Z,19.20
2019-05-18T15:00:28.808Z,19.00
2019-05-18T15:02:58.137Z,18.80
2019-05-18T15:05:27.458Z,18.60
2019-05-18T15:07:56.796Z,18.40
2019-05-18T15:10:26.277Z,18.40
2019-05-18T15:12:55.601Z,18.40
2019-05-18T15:15:25.137Z,18.40
2019-05-18T15:17:54.725Z,18.20
2019-05-18T15:20:24.091Z,18.30
2019-05-18T15:22:53.445Z,18.40
2019-05-18T15:25:22.902Z,18.50
2019-05-18T15:27:52.293Z,18.60
2019-05-18T15:30:22.233Z,18.80
2019-05-18T15:32:52.314Z,18.80
2019-05-18T15:35:21.712Z,18.90
2019-05-18T15:37:51.027Z,18.80
2019-05-18T15:40:20.964Z,19.10
2019-05-18T15:42:50.366Z,19.10
2019-05-18T15:45:19.937Z,18.90
2019-05-18T15:47:49.350Z,19.10
2019-05-18T15:50:19.209Z,19.10
2019-05-18T15:52:48.679Z,19.10
2019-05-18T15:55:18.159Z,19.10
2019-05-18T15:57:47.565Z,19.10
2019-05-18T16:00:17.292Z,19.20
2019-05-18T16:02:46.692Z,18.90
2019-05-18T16:05:16.739Z,18.90
2019-05-18T16:07:46.141Z,19.20
2019-05-18T16:10:15.905Z,19.20
2019-05-18T16:12:45.311Z,19.00
2019-05-18T16:15:15.092Z,18.90
2019-05-18T16:17:45.426Z,18.90
2019-05-18T16:20:15.512Z,19.00
2019-05-18T16:23:48.847Z,19.00
2019-05-18T16:26:21.736Z,18.90
2019-05-18T16:28:49.188Z,19.00
2019-05-18T16:31:18.484Z,18.90
2019-05-18T16:33:47.889Z,19.00
2019-05-18T16:36:17.279Z,18.90
2019-05-18T16:38:46.584Z,19.00
2019-05-18T16:41:15.906Z,18.80
2019-05-18T16:43:45.284Z,18.80
2019-05-18T16:46:14.619Z,18.80
2019-05-18T16:48:43.941Z,19.00
2019-05-18T16:51:13.275Z,18.70
2019-05-18T16:53:47.080Z,18.70
2019-05-18T16:56:14.662Z,18.60
2019-05-18T16:58:44.025Z,18.40
2019-05-18T17:01:13.364Z,18.50
2019-05-18T17:03:42.727Z,18.50
2019-05-18T17:06:12.052Z,18.40
2019-05-18T17:08:41.606Z,18.30
2019-05-18T17:11:10.953Z,18.20
2019-05-18T17:13:40.285Z,18.10
2019-05-18T17:16:09.606Z,18.00
2019-05-18T17:18:39.203Z,17.90
2019-05-18T17:21:08.466Z,18.00
2019-05-18T17:23:37.789Z,18.10
2019-05-18T17:26:07.115Z,18.10
2019-05-18T17:28:36.445Z,18.00
2019-05-18T17:31:05.860Z,18.10
2019-05-18T17:33:36.290Z,18.00
2019-05-18T17:36:05.691Z,17.90
2019-05-18T17:38:35.043Z,17.80
2019-05-18T17:41:04.659Z,17.80
2019-05-18T17:43:35.078Z,17.80
2019-05-18T17:46:04.584Z,17.80
2019-05-18T17:48:34.057Z,17.80
2019-05-18T17:51:03.403Z,17.80
2019-05-18T17:53:32.774Z,17.80
2019-05-18T17:56:02.108Z,17.60
2019-05-18T17:58:31.476Z,17.50
2019-05-18T18:01:01.140Z,17.40
2019-05-18T18:03:30.435Z,17.30
2019-05-18T18:05:59.759Z,17.30
2019-05-18T18:08:29.663Z,17.20
2019-05-18T18:10:58.993Z,17.20
2019-05-18T18:13:28.437Z,17.10
2019-05-18T18:15:57.770Z,17.10
2019-05-18T18:18:27.206Z,17.00
2019-05-18T18:20:56.599Z,17.00
2019-05-18T18:23:27.064Z,16.90
2019-05-18T18:25:55.787Z,16.80
2019-05-18T18:28:25.109Z,16.80
2019-05-18T18:32:30.761Z,16.80
2019-05-18T18:35:00.156Z,16.70
2019-05-18T18:37:29.897Z,16.70
2019-05-18T18:39:59.221Z,16.60
2019-05-18T18:42:28.644Z,16.50
2019-05-18T18:44:58.194Z,16.40
2019-05-18T18:47:27.611Z,16.40
2019-05-18T18:49:57.061Z,16.40
2019-05-18T18:52:26.459Z,16.40
2019-05-18T18:54:55.787Z,16.30
2019-05-18T18:57:38.533Z,16.10
2019-05-18T18:59:57.089Z,16.00
2019-05-18T19:02:25.811Z,16.00
2019-05-18T19:04:55.236Z,16.00
2019-05-18T19:07:24.556Z,16.10
2019-05-18T19:09:53.891Z,16.00
2019-05-18T19:12:23.199Z,15.80
2019-05-18T19:14:52.697Z,15.70
2019-05-18T19:17:22.001Z,15.60
2019-05-18T19:19:51.335Z,15.50
2019-05-18T19:22:20.715Z,15.50
2019-05-18T19:24:50.068Z,15.50
2019-05-18T19:27:19.568Z,15.60
2019-05-18T19:29:48.900Z,15.50
2019-05-18T19:32:18.341Z,15.30
2019-05-18T19:34:47.736Z,15.30
2019-05-18T19:37:17.054Z,15.40
2019-05-18T19:39:46.459Z,15.30
2019-05-18T19:42:15.839Z,15.30
2019-05-18T19:44:45.230Z,15.10
2019-05-18T19:47:14.549Z,15.00
2019-05-18T19:49:43.883Z,15.10
2019-05-18T19:52:13.178Z,15.00
2019-05-18T19:54:42.503Z,14.80
2019-05-18T19:57:11.896Z,14.90
2019-05-18T19:59:41.208Z,15.00
2019-05-18T20:02:10.679Z,15.00
2019-05-18T20:04:40.820Z,14.90
2019-05-18T20:07:10.284Z,14.80
2019-05-18T20:09:40.767Z,14.80
2019-05-18T20:12:10.115Z,14.80
2019-05-18T20:14:39.480Z,14.60
2019-05-18T20:17:08.901Z,14.50
2019-05-18T20:19:39.915Z,14.50
2019-05-18T20:22:09.639Z,14.50
2019-05-18T20:24:39.045Z,14.30
2019-05-18T20:27:08.342Z,14.20
2019-05-18T20:29:37.667Z,14.10
2019-05-18T20:32:07.036Z,14.10
2019-05-18T20:34:36.444Z,14.00
2019-05-18T20:37:05.754Z,14.00
2019-05-18T20:39:35.075Z,14.00
2019-05-18T20:42:04.387Z,13.80
2019-05-18T20:44:33.698Z,13.80
2019-05-18T20:47:03.029Z,13.70
2019-05-18T20:49:32.328Z,13.60
2019-05-18T20:52:01.649Z,13.60
2019-05-18T20:54:30.957Z,13.60
2019-05-18T20:57:00.293Z,13.60
2019-05-18T20:59:29.596Z,13.60
2019-05-18T21:01:58.933Z,13.60
2019-05-18T21:04:28.239Z,13.50
2019-05-18T21:06:58.640Z,13.60
2019-05-18T21:09:27.959Z,13.60
2019-05-18T21:11:57.290Z,13.70
2019-05-18T21:14:26.594Z,13.70
2019-05-18T21:16:55.990Z,13.80
2019-05-18T21:19:25.309Z,13.80
2019-05-18T21:21:54.685Z,13.90
2019-05-18T21:24:24.029Z,13.90
2019-05-18T21:26:53.334Z,14.00
2019-05-18T21:29:22.667Z,14.00
2019-05-18T21:31:52.039Z,14.00
2019-05-18T21:34:21.348Z,14.00
2019-05-18T21:36:50.695Z,14.00
2019-05-18T21:39:20.096Z,13.90
2019-05-18T21:41:49.400Z,13.90
2019-05-18T21:44:18.739Z,14.00
2019-05-18T21:46:48.085Z,14.00
2019-05-18T21:49:17.405Z,14.00
2019-05-18T21:51:46.736Z,14.10
2019-05-18T21:54:17.113Z,14.10
2019-05-18T21:56:46.437Z,14.00
2019-05-18T21:59:15.750Z,14.10
2019-05-18T22:01:45.147Z,14.00
2019-05-18T22:04:14.547Z,13.90
2019-05-18T22:06:43.944Z,13.80
2019-05-18T22:09:17.007Z,13.80
2019-05-18T22:11:46.421Z,13.80
2019-05-18T22:14:15.763Z,13.70
2019-05-18T22:16:45.061Z,13.70
2019-05-18T22:19:14.390Z,13.70
2019-05-18T22:21:43.792Z,13.60
2019-05-18T22:24:13.103Z,13.70
2019-05-18T22:26:42.541Z,13.70
2019-05-18T22:29:11.836Z,13.70
2019-05-18T22:31:41.178Z,13.70
2019-05-18T22:34:10.548Z,13.80
2019-05-18T22:36:39.868Z,13.70
2019-05-18T22:39:09.186Z,13.70
2019-05-18T22:41:38.802Z,13.80
2019-05-18T22:44:09.706Z,13.80
2019-05-18T22:46:39.031Z,13.70
2019-05-18T22:49:08.397Z,13.70
2019-05-18T22:51:37.734Z,13.70
2019-05-18T22:54:07.132Z,13.60
2019-05-18T22:56:36.539Z,13.60
2019-05-18T22:59:05.874Z,13.50
2019-05-18T23:01:35.200Z,13.50
2019-05-18T23:04:04.572Z,13.50
2019-05-18T23:06:33.912Z,13.40
2019-05-18T23:09:04.576Z,13.30
2019-05-18T23:11:34.015Z,13.30
2019-05-18T23:14:03.449Z,13.40
2019-05-18T23:16:32.779Z,13.40
2019-05-18T23:19:02.084Z,13.50
2019-05-18T23:21:31.461Z,13.40
2019-05-18T23:24:00.797Z,13.40
2019-05-18T23:26:30.178Z,13.40
2019-05-18T23:28:59.515Z,13.40
2019-05-18T23:31:28.804Z,13.30
2019-05-18T23:33:59.323Z,13.10
2019-05-18T23:36:28.797Z,13.10
2019-05-18T23:38:58.185Z,13.10
2019-05-18T23:41:27.608Z,13.10
2019-05-18T23:43:57.980Z,13.10
2019-05-18T23:46:27.300Z,13.10
2019-05-18T23:49:08.709Z,13.10
2019-05-18T23:51:27.640Z,12.90
2019-05-18T23:53:56.969Z,12.90
2019-05-18T23:56:26.265Z,12.80
2019-05-18T23:58:55.590Z,12.90
